createdAt,value
2019-04-16T00:02:43.114Z,9.30
2019-04-16T00:05:20.407Z,10.60
2019-04-16T00:08:26.677Z,9.50
2019-04-16T00:10:54.227Z,9.83
2019-04-16T00:13:39.673Z,10.17
2019-04-16T00:16:17.294Z,10.03
2019-04-16T00:18:57.323Z,10.10
2019-04-16T00:21:41.167Z,10.80
2019-04-16T00:24:24.354Z,10.20
2019-04-16T00:27:00.100Z,9.13
2019-04-16T00:29:32.984Z,10.00
2019-04-16T00:32:09.183Z,9.83
2019-04-16T00:34:44.743Z,9.63
2019-04-16T00:37:20.520Z,10.63
2019-04-16T00:39:55.511Z,11.07
2019-04-16T00:42:23.580Z,9.70
2019-04-16T00:44:54.102Z,10.60
2019-04-16T00:47:24.734Z,9.93
2019-04-16T00:49:58.815Z,9.57
2019-04-16T00:52:29.469Z,10.67
2019-04-16T00:55:00.020Z,9.80
2019-04-16T00:57:33.923Z,9.60
2019-04-16T01:00:08.313Z,9.67
2019-04-16T01:02:41.643Z,10.00
2019-04-16T01:05:12.339Z,9.93
2019-04-16T01:07:43.293Z,9.10
2019-04-16T01:10:14.973Z,9.37
2019-04-16T01:12:45.400Z,9.17
2019-04-16T01:15:15.843Z,10.23
2019-04-16T01:17:48.756Z,9.07
2019-04-16T01:20:22.409Z,10.00
2019-04-16T01:22:55.201Z,9.60
2019-04-16T01:25:27.039Z,9.33
2019-04-16T01:28:01.269Z,9.87
2019-04-16T01:30:49.568Z,9.23
2019-04-16T01:33:34.176Z,9.03
2019-04-16T01:36:23.783Z,9.50
2019-04-16T01:39:14.772Z,9.87
2019-04-16T01:41:33.741Z,9.63
2019-04-16T01:44:07.331Z,9.77
2019-04-16T01:46:38.329Z,10.17
2019-04-16T01:49:10.274Z,10.80
2019-04-16T01:51:41.162Z,8.93
2019-04-16T01:54:11.867Z,9.87
2019-04-16T01:56:42.464Z,10.43
2019-04-16T01:59:13.894Z,10.63
2019-04-16T02:01:46.616Z,9.90
2019-04-16T02:04:19.589Z,8.93
2019-04-16T02:06:49.361Z,9.80
2019-04-16T02:09:23.142Z,9.97
2019-04-16T02:11:53.801Z,9.47
2019-04-16T02:14:25.421Z,9.57
2019-04-16T02:16:56.705Z,9.33
2019-04-16T02:19:27.509Z,9.47
2019-04-16T02:21:58.037Z,9.57
2019-04-16T02:24:30.102Z,9.83
2019-04-16T02:27:04.320Z,10.10
2019-04-16T02:29:34.813Z,8.63
2019-04-16T02:32:05.577Z,9.20
2019-04-16T02:34:36.148Z,9.87
2019-04-16T02:37:06.752Z,10.10
2019-04-16T02:39:49.567Z,10.37
2019-04-16T02:42:14.014Z,9.73
2019-04-16T02:44:50.070Z,10.37
2019-04-16T02:47:18.785Z,9.80
2019-04-16T02:49:56.424Z,10.20
2019-04-16T02:52:41.692Z,10.03
2019-04-16T02:55:44.246Z,10.50
2019-04-16T02:58:22.854Z,10.37
2019-04-16T03:01:21.854Z,9.70
2019-04-16T03:04:17.583Z,10.23
2019-04-16T03:06:48.528Z,9.53
2019-04-16T03:09:19.060Z,9.63
2019-04-16T03:11:51.836Z,9.87
2019-04-16T03:14:22.880Z,10.37
2019-04-16T03:17:18.460Z,9.53
2019-04-16T03:19:51.280Z,10.43
2019-04-16T03:22:22.074Z,10.10
2019-04-16T03:24:55.525Z,9.60
2019-04-16T03:27:26.115Z,10.07
2019-04-16T03:30:03.008Z,10.50
2019-04-16T03:32:36.258Z,9.27
2019-04-16T03:35:09.987Z,9.47
2019-04-16T03:37:46.949Z,9.53
2019-04-16T03:40:28.335Z,10.27
2019-04-16T03:43:03.724Z,9.80
2019-04-16T03:45:37.600Z,9.43
2019-04-16T03:48:12.132Z,10.00
2019-04-16T03:50:45.546Z,10.13
2019-04-16T03:53:22.199Z,10.03
2019-04-16T03:55:59.262Z,10.03
2019-04-16T03:58:31.362Z,9.80
2019-04-16T04:01:02.434Z,9.60
2019-04-16T04:03:32.983Z,10.10
2019-04-16T04:06:06.180Z,10.43
2019-04-16T04:08:35.822Z,10.00
2019-04-16T04:11:10.548Z,9.83
2019-04-16T04:13:42.456Z,10.27
2019-04-16T04:16:13.345Z,9.97
2019-04-16T04:18:44.218Z,10.23
2019-04-16T04:21:14.652Z,9.60
2019-04-16T04:23:47.712Z,11.80
2019-04-16T04:26:18.304Z,10.53
2019-04-16T04:28:51.529Z,11.70
2019-04-16T04:31:21.313Z,12.37
2019-04-16T04:33:55.101Z,12.37
2019-04-16T04:36:28.422Z,12.30
2019-04-16T04:39:09.930Z,11.83
2019-04-16T04:41:40.002Z,12.30
2019-04-16T04:44:12.335Z,13.60
2019-04-16T04:46:47.474Z,12.23
2019-04-16T04:49:19.146Z,12.73
2019-04-16T04:51:49.660Z,13.60
2019-04-16T04:54:22.356Z,13.60
2019-04-16T04:56:52.745Z,13.50
2019-04-16T04:59:23.465Z,13.60
2019-04-16T05:01:57.728Z,13.27
2019-04-16T05:04:54.789Z,13.67
2019-04-16T05:07:25.757Z,13.23
2019-04-16T05:09:57.682Z,13.67
2019-04-16T05:12:29.350Z,13.33
2019-04-16T05:15:00.056Z,13.50
2019-04-16T05:17:37.930Z,13.63
2019-04-16T05:20:06.696Z,13.30
2019-04-16T05:22:38.980Z,13.30
2019-04-16T05:25:16.562Z,12.73
2019-04-16T05:27:47.355Z,13.00
2019-04-16T05:30:20.870Z,12.40
2019-04-16T05:32:51.455Z,13.13
2019-04-16T05:35:21.815Z,12.63
2019-04-16T05:37:52.330Z,12.03
2019-04-16T05:40:23.798Z,11.97
2019-04-16T05:42:55.865Z,11.33
2019-04-16T05:45:26.757Z,11.57
2019-04-16T05:47:58.635Z,11.60
2019-04-16T05:50:29.964Z,12.00
2019-04-16T05:53:00.428Z,11.43
2019-04-16T05:55:42.799Z,15.10
2019-04-16T05:58:13.190Z,10.87
2019-04-16T06:00:52.668Z,9.57
2019-04-16T06:03:23.126Z,10.23
2019-04-16T06:05:53.452Z,10.63
2019-04-16T06:08:24.000Z,11.27
2019-04-16T06:10:57.431Z,11.63
2019-04-16T06:13:41.310Z,10.73
2019-04-16T06:16:16.690Z,10.57
2019-04-16T06:19:08.546Z,9.50
2019-04-16T06:21:56.695Z,9.87
2019-04-16T06:24:36.072Z,9.97
2019-04-16T06:27:28.521Z,9.77
2019-04-16T06:30:19.672Z,9.27
2019-04-16T06:33:03.393Z,9.70
2019-04-16T06:35:51.480Z,9.83
2019-04-16T06:38:35.453Z,9.47
2019-04-16T06:41:41.148Z,9.63
2019-04-16T06:44:03.856Z,9.60
2019-04-16T06:46:55.963Z,10.10
2019-04-16T06:50:00.691Z,8.87
2019-04-16T06:52:41.172Z,9.80
2019-04-16T06:55:21.085Z,10.50
2019-04-16T06:58:16.652Z,9.47
2019-04-16T07:00:55.940Z,9.40
2019-04-16T07:03:44.053Z,8.83
2019-04-16T07:06:36.350Z,8.83
2019-04-16T07:09:40.831Z,8.97
2019-04-16T07:12:06.086Z,8.83
2019-04-16T07:14:36.585Z,8.57
2019-04-16T07:17:07.717Z,9.17
2019-04-16T07:19:39.445Z,8.97
2019-04-16T07:22:11.444Z,9.33
2019-04-16T07:24:42.164Z,8.97
2019-04-16T07:27:12.691Z,9.87
2019-04-16T07:29:50.122Z,9.33
2019-04-16T07:32:28.602Z,8.17
2019-04-16T07:35:15.968Z,9.47
2019-04-16T07:38:11.682Z,9.37
2019-04-16T07:41:04.257Z,9.03
2019-04-16T07:43:52.191Z,8.90
2019-04-16T07:47:01.288Z,8.17
2019-04-16T07:49:59.848Z,8.83
2019-04-16T07:52:58.868Z,8.37
2019-04-16T07:55:44.500Z,8.67
2019-04-16T07:58:14.803Z,9.17
2019-04-16T08:00:45.214Z,8.63
2019-04-16T08:03:15.517Z,8.43
2019-04-16T08:05:45.833Z,8.87
2019-04-16T08:08:16.141Z,8.07
2019-04-16T08:10:46.423Z,8.57
2019-04-16T08:13:18.857Z,8.40
2019-04-16T08:15:49.085Z,9.13
2019-04-16T08:18:19.420Z,8.17
2019-04-16T08:21:00.615Z,8.67
2019-04-16T08:23:51.731Z,8.63
2019-04-16T08:26:18.868Z,8.53
2019-04-16T08:28:49.267Z,8.07
2019-04-16T08:31:24.468Z,8.80
2019-04-16T08:33:57.057Z,8.60
2019-04-16T08:39:07.686Z,8.50
2019-04-16T08:41:38.999Z,7.90
2019-04-16T08:44:10.612Z,8.60
2019-04-16T08:46:42.354Z,10.03
2019-04-16T08:49:14.818Z,8.97
2019-04-16T08:51:44.818Z,7.83
2019-04-16T08:54:18.143Z,9.40
2019-04-16T08:56:48.096Z,9.00
2019-04-16T08:59:18.379Z,8.67
2019-04-16T09:01:51.454Z,7.70
2019-04-16T09:04:22.433Z,8.70
2019-04-16T09:06:52.734Z,8.87
2019-04-16T09:09:33.377Z,8.53
2019-04-16T09:12:09.251Z,7.83
2019-04-16T09:14:46.147Z,8.50
2019-04-16T09:17:28.951Z,8.80
2019-04-16T09:20:22.907Z,8.10
2019-04-16T09:22:53.638Z,9.68
2019-04-16T09:25:45.674Z,8.57
2019-04-16T09:28:39.360Z,8.83
2019-04-16T09:31:43.941Z,8.47
2019-04-16T09:34:44.939Z,8.70
2019-04-16T09:37:25.520Z,9.78
2019-04-16T09:40:19.912Z,8.90
2019-04-16T09:42:50.253Z,8.17
2019-04-16T09:45:20.682Z,8.50
2019-04-16T09:47:51.144Z,9.07
2019-04-16T09:50:21.655Z,9.68
2019-04-16T09:52:52.515Z,9.10
2019-04-16T09:55:24.058Z,9.23
2019-04-16T09:57:55.439Z,8.67
2019-04-16T10:00:30.793Z,8.40
2019-04-16T10:03:09.887Z,9.37
2019-04-16T10:05:40.441Z,8.97
2019-04-16T10:08:14.007Z,8.83
2019-04-16T10:10:44.416Z,8.17
2019-04-16T10:13:29.642Z,9.23
2019-04-16T10:15:48.625Z,9.23
2019-04-16T10:18:19.471Z,9.47
2019-04-16T10:20:50.975Z,9.37
2019-04-16T10:23:31.612Z,8.50
2019-04-16T10:26:02.012Z,8.63
2019-04-16T10:28:37.715Z,8.73
2019-04-16T10:31:09.688Z,9.90
2019-04-16T10:33:40.912Z,9.20
2019-04-16T10:36:11.305Z,9.40
2019-04-16T10:39:01.516Z,8.87
2019-04-16T10:41:49.324Z,9.57
2019-04-16T10:44:27.738Z,9.50
2019-04-16T10:47:16.628Z,9.50
2019-04-16T10:49:53.886Z,9.13
2019-04-16T10:52:35.197Z,9.77
2019-04-16T10:55:18.762Z,9.30
2019-04-16T10:58:25.342Z,10.30
2019-04-16T11:01:16.273Z,9.80
2019-04-16T11:03:57.913Z,9.60
2019-04-16T11:06:36.155Z,8.73
2019-04-16T11:09:08.370Z,10.60
2019-04-16T11:11:39.155Z,9.93
2019-04-16T11:14:09.602Z,10.57
2019-04-16T11:16:42.786Z,9.70
2019-04-16T11:19:13.656Z,9.87
2019-04-16T11:21:44.382Z,10.07
2019-04-16T11:24:15.894Z,10.50
2019-04-16T11:26:46.933Z,9.67
2019-04-16T11:29:17.375Z,10.20
2019-04-16T11:31:47.827Z,10.17
2019-04-16T11:34:18.245Z,12.53
2019-04-16T11:36:48.719Z,9.70
2019-04-16T11:39:19.135Z,10.83
2019-04-16T11:41:49.615Z,10.43
2019-04-16T11:44:20.035Z,10.70
2019-04-16T11:46:51.988Z,10.87
2019-04-16T11:49:22.450Z,11.20
2019-04-16T11:51:52.831Z,11.23
2019-04-16T11:54:23.404Z,10.43
2019-04-16T11:56:55.567Z,10.80
2019-04-16T11:59:25.928Z,10.93
2019-04-16T12:02:27.597Z,11.20
2019-04-16T12:05:06.111Z,11.23
2019-04-16T12:07:56.359Z,11.27
2019-04-16T12:10:49.219Z,12.10
2019-04-16T12:13:50.566Z,11.87
2019-04-16T12:16:31.599Z,10.97
2019-04-16T12:19:27.105Z,11.53
2019-04-16T12:22:02.739Z,11.93
2019-04-16T12:24:45.607Z,11.63
2019-04-16T12:27:35.055Z,12.05
2019-04-16T12:30:34.175Z,12.23
2019-04-16T12:33:15.062Z,11.23
2019-04-16T12:36:04.739Z,11.90
2019-04-16T12:38:58.464Z,12.33
2019-04-16T12:42:00.037Z,12.43
2019-04-16T12:44:52.119Z,13.00
2019-04-16T12:47:41.451Z,12.95
2019-04-16T12:50:28.824Z,12.10
2019-04-16T12:53:09.547Z,12.60
2019-04-16T12:56:08.886Z,12.93
2019-04-16T12:59:04.214Z,12.73
2019-04-16T13:01:52.107Z,12.40
2019-04-16T13:04:30.013Z,13.37
2019-04-16T13:07:09.288Z,13.37
2019-04-16T13:10:29.555Z,13.07
2019-04-16T13:13:15.266Z,13.15
2019-04-16T13:16:06.422Z,12.90
2019-04-16T13:19:07.918Z,13.35
2019-04-16T13:21:44.764Z,13.32
2019-04-16T13:24:21.999Z,13.25
2019-04-16T13:27:08.947Z,13.83
2019-04-16T13:29:42.484Z,13.48
2019-04-16T13:32:14.982Z,12.88
2019-04-16T13:34:46.589Z,13.18
2019-04-16T13:48:31.819Z,13.35
2019-04-16T14:28:07.562Z,14.13
2019-04-16T14:31:48.934Z,13.53
2019-04-16T14:41:21.412Z,14.67
2019-04-16T15:18:00.868Z,13.77
2019-04-16T15:18:26.570Z,15.05
2019-04-16T15:21:03.774Z,14.98
2019-04-16T15:24:02.541Z,14.13
2019-04-16T15:27:06.137Z,14.60
2019-04-16T15:29:56.499Z,15.85
2019-04-16T15:33:07.112Z,14.73
2019-04-16T15:35:43.747Z,15.80
2019-04-16T15:38:26.674Z,15.13
2019-04-16T15:41:17.430Z,14.93
2019-04-16T15:44:08.986Z,14.53
2019-04-16T15:47:13.914Z,15.48
2019-04-16T15:54:25.703Z,15.68
2019-04-16T15:57:16.903Z,15.43
2019-04-16T16:00:04.757Z,15.25
2019-04-16T16:03:08.252Z,15.32
2019-04-16T16:05:50.931Z,16.00
2019-04-16T16:08:48.802Z,14.67
2019-04-16T16:11:44.447Z,14.83
2019-04-16T16:14:24.748Z,16.42
2019-04-16T16:17:15.412Z,15.97
2019-04-16T16:20:00.622Z,15.47
2019-04-16T16:26:28.197Z,14.97
2019-04-16T16:29:15.334Z,15.10
2019-04-16T16:31:53.234Z,15.65
2019-04-16T16:34:27.470Z,15.80
2019-04-16T16:37:46.814Z,15.33
2019-04-16T16:41:37.110Z,15.57
2019-04-16T16:49:29.479Z,16.93
2019-04-16T17:05:22.830Z,15.37
2019-04-16T17:07:58.927Z,15.65
2019-04-16T17:10:31.767Z,15.37
2019-04-16T17:13:06.672Z,16.23
2019-04-16T17:15:49.625Z,15.53
2019-04-16T17:19:19.862Z,15.47
2019-04-16T17:22:40.714Z,15.00
2019-04-16T17:50:42.482Z,16.00
2019-04-16T17:53:54.185Z,16.90
2019-04-16T18:05:16.069Z,15.97
2019-04-16T18:12:12.714Z,16.50
2019-04-16T18:15:29.850Z,16.73
2019-04-16T18:22:41.837Z,16.07
2019-04-16T18:26:39.586Z,15.97
2019-04-16T18:33:50.171Z,16.83
2019-04-16T18:36:30.784Z,17.43
2019-04-16T18:39:26.155Z,16.37
2019-04-16T18:42:26.670Z,16.57
2019-04-16T18:45:18.859Z,16.90
2019-04-16T18:48:08.738Z,16.77
2019-04-16T18:50:51.718Z,16.67
2019-04-16T18:53:27.331Z,16.50
2019-04-16T18:56:34.536Z,16.90
2019-04-16T18:59:48.617Z,17.33
2019-04-16T19:02:29.343Z,16.70
2019-04-16T19:05:07.386Z,16.80
2019-04-16T19:07:52.519Z,16.00
2019-04-16T19:34:47.550Z,17.40
2019-04-16T20:25:44.776Z,17.43
2019-04-16T20:28:32.292Z,17.73
2019-04-16T20:31:49.859Z,17.03
2019-04-16T20:35:01.325Z,18.20
2019-04-16T20:38:22.268Z,18.67
2019-04-16T20:41:10.467Z,18.17
2019-04-16T20:43:52.797Z,17.47
2019-04-16T20:46:31.063Z,18.30
2019-04-16T20:49:23.662Z,18.57
2019-04-16T20:52:02.927Z,18.10
2019-04-16T20:54:50.340Z,18.63
2019-04-16T20:57:26.806Z,17.70
2019-04-16T21:00:10.954Z,18.13
2019-04-16T21:02:48.243Z,17.80
2019-04-16T21:05:26.125Z,19.57
2019-04-16T21:08:07.715Z,18.67
2019-04-16T21:10:49.095Z,17.60
2019-04-16T21:13:25.481Z,17.90
2019-04-16T21:16:06.256Z,18.27
2019-04-16T21:18:37.476Z,18.30
2019-04-16T21:21:22.953Z,18.30
2019-04-16T21:24:17.156Z,17.40
2019-04-16T21:26:53.747Z,17.77
2019-04-16T21:29:36.646Z,18.03
2019-04-16T21:32:19.619Z,19.23
2019-04-16T21:34:58.692Z,20.77
2019-04-16T21:37:51.498Z,18.67
2019-04-16T21:40:30.543Z,19.47
2019-04-16T21:43:09.652Z,19.97
2019-04-16T21:45:53.592Z,18.63
2019-04-16T21:48:31.435Z,19.13
2019-04-16T21:51:22.357Z,20.57
2019-04-16T21:53:58.852Z,19.30
2019-04-16T21:56:39.771Z,19.57
2019-04-16T21:59:14.339Z,19.40
2019-04-16T22:01:51.838Z,19.10
2019-04-16T22:04:27.197Z,20.50
2019-04-16T22:07:07.158Z,20.40
2019-04-16T22:09:40.239Z,21.17
2019-04-16T22:12:15.496Z,20.87
2019-04-16T22:14:51.088Z,21.27
2019-04-16T22:17:20.838Z,19.20
2019-04-16T22:20:00.577Z,20.70
2019-04-16T22:22:28.011Z,21.60
2019-04-16T22:25:48.827Z,22.20
2019-04-16T22:28:24.844Z,22.00
2019-04-16T22:30:56.186Z,22.80
2019-04-16T22:33:29.941Z,23.23
2019-04-16T22:36:08.534Z,22.93
2019-04-16T22:38:48.173Z,24.27
2019-04-16T22:41:38.208Z,22.37
2019-04-16T22:44:37.430Z,22.67
2019-04-16T22:47:17.410Z,22.87
2019-04-16T22:49:51.626Z,22.73
2019-04-16T22:52:26.407Z,21.60
2019-04-16T22:54:59.864Z,22.40
2019-04-16T22:57:31.877Z,22.50
2019-04-16T23:00:11.749Z,23.07
2019-04-16T23:02:40.356Z,22.80
2019-04-16T23:05:13.717Z,23.83
2019-04-16T23:07:47.624Z,23.57
2019-04-16T23:10:21.163Z,22.77
2019-04-16T23:12:53.591Z,22.90
2019-04-16T23:15:24.553Z,24.57
2019-04-16T23:17:55.459Z,24.47
2019-04-16T23:20:33.555Z,24.93
2019-04-16T23:23:02.998Z,23.50
2019-04-16T23:25:38.021Z,24.83
2019-04-16T23:28:11.097Z,24.27
2019-04-16T23:30:43.574Z,24.53
2019-04-16T23:33:14.933Z,24.23
2019-04-16T23:35:46.222Z,24.30
2019-04-16T23:38:18.496Z,24.97
2019-04-16T23:40:49.269Z,24.73
2019-04-16T23:43:53.500Z,24.53
2019-04-16T23:46:50.603Z,25.30
2019-04-16T23:49:38.231Z,24.27
2019-04-16T23:52:18.144Z,26.10
2019-04-16T23:54:56.008Z,25.37
2019-04-16T23:57:38.802Z,24.20
